Time;durP1;ratioP1;P1;durP2;ratioP2;P2;SDS_P1;SDS_P2;PMS_P1;PMS_P2;Temp;Humidity;BMP_temperature;BMP_pressure;BME280_temperature;BME280_humidity;BME280_pressure;Samples;Min_cycle;Max_cycle;Signal;HPM_P1;HPM_P2
2022/06/03 00:02:20;;;;;;;2.60;2.13;;;;;;;12.95;63.95;101672.25;5003169;28;20033;-72
2022/06/03 00:05:05;;;;;;;3.92;2.20;;;;;;;12.93;63.90;101675.00;4984559;28;20049;-70
2022/06/03 00:07:43;;;;;;;3.20;2.20;;;;;;;12.90;64.07;101672.69;5042269;22;20043;-70
2022/06/03 00:10:27;;;;;;;3.13;2.00;;;;;;;12.91;64.38;101665.72;5048305;28;20036;-69
2022/06/03 00:13:01;;;;;;;3.53;2.08;;;;;;;12.87;64.94;101665.19;5066629;28;20035;-70
2022/06/03 00:15:32;;;;;;;2.53;1.65;;;;;;;12.84;64.95;101670.69;5034295;28;20070;-70
2022/06/03 00:18:16;;;;;;;2.90;1.98;;;;;;;12.80;64.76;101664.16;5067018;28;20033;-69
2022/06/03 00:21:13;;;;;;;3.13;2.10;;;;;;;12.77;64.92;101665.28;5042757;28;20490;-70
2022/06/03 00:23:41;;;;;;;3.75;1.85;;;;;;;12.70;65.17;101663.41;5065539;28;20033;-70
2022/06/03 00:26:34;;;;;;;2.42;1.88;;;;;;;12.69;65.67;101661.78;5062023;28;20059;-69
2022/06/03 00:29:31;;;;;;;4.35;2.50;;;;;;;12.68;66.04;101662.72;5047078;28;20078;-69
2022/06/03 00:31:59;;;;;;;2.95;1.98;;;;;;;12.66;66.36;101666.31;5064601;28;20100;-70
2022/06/03 00:34:53;;;;;;;3.35;2.05;;;;;;;12.65;66.57;101662.06;5048803;28;20036;-69
2022/06/03 00:37:38;;;;;;;5.70;1.85;;;;;;;12.63;66.98;101671.00;5049667;28;20068;-70
2022/06/03 00:40:09;;;;;;;3.33;2.15;;;;;;;12.57;67.39;101669.00;5048390;28;20043;-69
2022/06/03 00:42:48;;;;;;;2.97;1.90;;;;;;;12.55;67.35;101661.31;5045754;28;20047;-69
2022/06/03 00:45:32;;;;;;;2.42;1.88;;;;;;;12.53;67.82;101667.66;5062782;28;20036;-69
2022/06/03 00:48:25;;;;;;;4.13;2.00;;;;;;;12.49;68.13;101671.50;5044443;28;20119;-69
2022/06/03 00:51:13;;;;;;;3.83;2.13;;;;;;;12.44;68.09;101664.13;5063906;28;20032;-69
2022/06/03 00:53:38;;;;;;;2.53;1.70;;;;;;;12.40;68.04;101666.22;5049087;28;20032;-69
2022/06/03 00:56:34;;;;;;;3.22;2.20;;;;;;;12.38;68.33;101668.16;5066181;28;20442;-69
2022/06/03 00:59:17;;;;;;;4.82;1.88;;;;;;;12.34;68.56;101664.22;5046290;28;20028;-70
2022/06/03 01:01:53;;;;;;;3.03;1.92;;;;;;;12.32;68.54;101663.53;5061585;28;20024;-69
2022/06/03 01:04:45;;;;;;;3.05;1.92;;;;;;;12.27;68.59;101657.94;5062711;28;20040;-69
2022/06/03 01:07:20;;;;;;;3.10;1.93;;;;;;;12.22;68.98;101653.19;5068268;28;20075;-70
2022/06/03 01:10:19;;;;;;;5.65;2.03;;;;;;;12.20;68.96;101654.28;5063250;28;20036;-69
2022/06/03 01:12:57;;;;;;;2.92;2.10;;;;;;;12.17;69.13;101654.59;5068119;28;20029;-69
2022/06/03 01:15:23;;;;;;;5.07;2.30;;;;;;;12.16;69.17;101658.97;5063165;28;20024;-69
2022/06/03 01:18:05;;;;;;;4.10;1.75;;;;;;;12.14;69.22;101653.09;5062252;28;20612;-69
2022/06/03 01:21:05;;;;;;;2.58;2.10;;;;;;;12.12;69.02;101649.00;5029531;28;20032;-70
2022/06/03 01:23:58;;;;;;;2.72;1.92;;;;;;;12.08;69.44;101643.28;5044944;28;20029;-69
2022/06/03 01:26:42;;;;;;;6.68;1.90;;;;;;;12.03;69.58;101641.09;5060927;28;20047;-70
2022/06/03 01:29:15;;;;;;;5.05;1.90;;;;;;;12.00;69.73;101638.00;5058983;28;20917;-70
2022/06/03 01:32:05;;;;;;;4.30;2.13;;;;;;;11.98;69.96;101643.34;5050122;28;20438;-69
2022/06/03 01:34:56;;;;;;;2.60;1.80;;;;;;;11.95;69.76;101653.19;5046574;28;20040;-69
2022/06/03 01:37:34;;;;;;;3.22;1.80;;;;;;;11.92;69.97;101645.69;5058710;28;20028;-70
2022/06/03 01:40:19;;;;;;;2.33;2.08;;;;;;;11.86;70.44;101642.66;5047381;28;20032;-70
2022/06/03 01:43:08;;;;;;;3.55;2.17;;;;;;;11.84;70.76;101646.38;5045439;28;20398;-70
2022/06/03 01:45:58;;;;;;;2.35;1.95;;;;;;;11.80;70.98;101642.44;5067190;28;20420;-69
2022/06/03 01:48:32;;;;;;;2.40;2.10;;;;;;;11.71;71.52;101641.50;5065495;28;20037;-69
2022/06/03 01:51:22;;;;;;;4.18;2.20;;;;;;;11.58;72.05;101649.59;5065177;28;20032;-70
2022/06/03 01:57:34;;;;;;;3.60;2.35;;;;;;;11.40;72.88;101638.34;5056777;28;20517;-69
2022/06/03 02:00:29;;;;;;;3.22;2.13;;;;;;;11.34;73.38;101631.91;5031349;28;20115;-70
2022/06/03 02:03:06;;;;;;;6.28;2.00;;;;;;;11.24;73.79;101631.91;5062259;28;20406;-70
2022/06/03 02:05:50;;;;;;;2.30;2.10;;;;;;;11.17;74.11;101627.44;5048661;28;20111;-69
2022/06/03 02:08:53;;;;;;;3.35;2.10;;;;;;;11.11;74.02;101628.81;5044197;28;20114;-69
2022/06/03 02:11:34;;;;;;;4.38;2.30;;;;;;;11.12;73.81;101629.66;5060829;28;20032;-70
2022/06/03 02:14:23;;;;;;;3.15;2.30;;;;;;;11.12;73.90;101614.06;5060028;28;20046;-69
2022/06/03 02:17:01;;;;;;;2.85;2.20;;;;;;;11.10;73.94;101616.81;5060383;28;20033;-70
2022/06/03 02:19:42;;;;;;;2.30;2.10;;;;;;;11.08;73.66;101608.34;5060730;28;20065;-69
2022/06/03 02:22:49;;;;;;;2.92;2.20;;;;;;;11.05;74.01;101609.41;5064749;28;20533;-70
2022/06/03 02:25:30;;;;;;;3.22;2.50;;;;;;;11.03;74.23;101615.72;5041380;28;20044;-69
2022/06/03 02:28:12;;;;;;;6.97;2.22;;;;;;;10.99;74.71;101616.97;5062108;28;20145;-69
2022/06/03 02:30:49;;;;;;;2.85;2.03;;;;;;;10.96;74.54;101607.66;5066179;28;20433;-69
2022/06/03 02:33:36;;;;;;;2.70;2.25;;;;;;;10.95;74.61;101592.25;5063957;28;20074;-69
2022/06/03 02:36:10;;;;;;;3.85;2.92;;;;;;;10.94;74.84;101600.97;5070980;28;20054;-69
2022/06/03 02:39:06;;;;;;;6.07;3.17;;;;;;;10.92;74.64;101603.69;5046443;28;20040;-69
2022/06/03 02:42:00;;;;;;;4.55;2.22;;;;;;;10.86;74.90;101607.66;5061108;28;20390;-69
2022/06/03 02:44:31;;;;;;;;;;;;;;;10.82;74.80;101608.09;5060021;28;20067;-69
2022/06/03 02:47:31;;;;;;;4.20;2.33;;;;;;;10.77;74.88;101595.53;5042732;28;19954;-69
2022/06/03 02:50:17;;;;;;;3.03;2.63;;;;;;;10.69;75.29;101593.63;5049529;28;20029;-69
2022/06/03 02:52:50;;;;;;;3.10;2.72;;;;;;;10.60;75.32;101591.84;5062024;28;20122;-69
2022/06/03 02:55:25;;;;;;;3.95;2.80;;;;;;;10.56;75.76;101605.22;5069789;28;20142;-69
2022/06/03 02:58:28;;;;;;;2.85;2.20;;;;;;;10.49;76.11;101610.13;5061533;28;20036;-69
2022/06/03 03:01:34;;;;;;;3.42;2.22;;;;;;;10.45;76.37;101606.16;5070192;28;20033;-69
2022/06/03 03:04:21;;;;;;;7.50;2.53;;;;;;;10.44;76.30;101609.72;5042976;28;20177;-70
2022/06/03 03:07:25;;;;;;;5.28;2.53;;;;;;;10.41;76.83;101603.03;5064217;28;20036;-70
2022/06/03 03:10:12;;;;;;;3.90;2.63;;;;;;;10.34;76.81;101596.78;4942416;28;20043;-70
2022/06/03 03:12:56;;;;;;;5.10;2.70;;;;;;;10.30;76.99;101598.81;4958705;28;20041;-69
2022/06/03 03:15:21;;;;;;;3.03;2.50;;;;;;;10.24;77.32;101604.47;5034114;28;20052;-70
2022/06/03 03:18:18;;;;;;;3.75;2.45;;;;;;;10.19;76.97;101606.66;5071885;28;20096;-70
2022/06/03 03:21:03;;;;;;;6.47;2.92;;;;;;;10.14;77.27;101604.47;5032702;28;20254;-69
2022/06/03 03:23:40;;;;;;;5.13;2.78;;;;;;;10.07;77.62;101607.72;5069427;28;20024;-69
2022/06/03 03:26:26;;;;;;;7.03;3.05;;;;;;;10.02;77.36;101610.72;5049663;28;20033;-69
2022/06/03 03:29:01;;;;;;;5.38;3.70;;;;;;;9.98;77.67;101614.50;5065510;28;20036;-69
2022/06/03 03:32:06;;;;;;;6.82;3.78;;;;;;;9.97;77.98;101612.88;5029650;28;20186;-69
2022/06/03 03:34:38;;;;;;;6.53;3.85;;;;;;;9.91;78.08;101608.25;5066204;28;20036;-69
2022/06/03 03:37:24;;;;;;;5.05;3.30;;;;;;;9.82;78.62;101609.84;5054033;28;20042;-69
2022/06/03 03:40:05;;;;;;;4.60;3.13;;;;;;;9.73;78.78;101597.66;5058009;28;20036;-69
2022/06/03 03:42:45;;;;;;;6.15;3.28;;;;;;;9.68;79.34;101597.22;5064040;28;20040;-70
2022/06/03 03:45:30;;;;;;;4.15;3.22;;;;;;;9.67;79.90;101600.78;5052120;28;21019;-69
2022/06/03 03:48:36;;;;;;;7.05;3.72;;;;;;;9.70;80.03;101597.91;5044874;28;20036;-70
2022/06/03 03:51:29;;;;;;;5.28;3.33;;;;;;;9.73;79.96;101587.31;5069884;28;20089;-69
2022/06/03 03:54:13;;;;;;;5.57;3.33;;;;;;;9.78;79.53;101595.50;5030996;28;20640;-70
2022/06/03 03:57:13;;;;;;;4.00;3.40;;;;;;;9.82;79.69;101599.47;5041366;28;20375;-69
2022/06/03 04:00:00;;;;;;;5.57;3.78;;;;;;;9.85;79.34;101596.63;5043518;28;20099;-69
2022/06/03 04:02:51;;;;;;;7.10;3.50;;;;;;;9.88;79.42;101593.75;5048949;28;20033;-69
2022/06/03 04:05:32;;;;;;;6.68;3.70;;;;;;;9.90;79.30;101591.84;5065637;28;20393;-69
2022/06/03 04:08:16;;;;;;;4.10;3.33;;;;;;;9.92;79.65;101592.53;5064612;28;20058;-69
2022/06/03 04:11:26;;;;;;;7.20;3.80;;;;;;;9.94;79.94;101593.25;5066188;28;20020;-69
2022/06/03 04:13:52;;;;;;;4.93;3.58;;;;;;;9.97;79.80;101591.34;5037071;28;20028;-69
2022/06/03 04:17:02;;;;;;;7.47;3.40;;;;;;;9.98;80.16;101588.59;5056064;28;20051;-69
2022/06/03 04:19:56;;;;;;;9.18;3.95;;;;;;;10.00;80.10;101589.31;5037984;28;20072;-69
2022/06/03 04:22:35;;;;;;;;;;;;;;;10.03;80.46;101591.63;5067920;28;20383;-69
2022/06/03 04:25:34;;;;;;;5.07;3.28;;;;;;;10.05;80.26;101592.31;5062686;28;20405;-69
2022/06/03 04:28:12;;;;;;;5.60;3.30;;;;;;;10.08;80.55;101586.06;5052148;28;20493;-69
2022/06/03 04:30:55;;;;;;;4.80;3.70;;;;;;;10.11;80.12;101589.19;5067138;28;20364;-70
2022/06/03 04:33:59;;;;;;;5.18;3.83;;;;;;;10.13;80.12;101589.88;5066374;28;20037;-70
2022/06/03 04:36:37;;;;;;;6.05;3.75;;;;;;;10.18;80.42;101583.47;5049202;28;20487;-69
2022/06/03 04:39:14;;;;;;;5.47;3.78;;;;;;;10.21;80.73;101583.19;5066447;28;20028;-69
2022/06/03 04:42:01;;;;;;;6.72;3.58;;;;;;;10.23;80.73;101576.94;5060010;28;20040;-69
2022/06/03 04:44:32;;;;;;;15.55;4.82;;;;;;;10.29;81.63;101581.56;5051176;28;20025;-69
2022/06/03 04:47:25;;;;;;;7.53;5.28;;;;;;;10.38;81.73;101581.72;5063730;28;20529;-69
2022/06/03 04:50:29;;;;;;;6.50;4.63;;;;;;;10.41;81.74;101581.47;5048316;28;20499;-69
2022/06/03 04:53:48;;;;;;;10.15;5.18;;;;;;;10.47;81.31;101583.50;5048008;28;20182;-69
2022/06/03 04:56:38;;;;;;;6.43;4.15;;;;;;;10.53;81.24;101580.41;4989196;28;20065;-69
2022/06/03 04:59:36;;;;;;;8.88;4.85;;;;;;;10.61;81.38;101580.53;5070539;28;20123;-68
2022/06/03 05:02:33;;;;;;;9.52;5.10;;;;;;;10.72;81.13;101574.38;5065800;28;20085;-69
2022/06/03 05:05:22;;;;;;;7.93;4.38;;;;;;;10.82;81.47;101574.38;5046567;28;20028;-69
2022/06/03 05:08:26;;;;;;;6.38;4.55;;;;;;;11.00;81.09;101572.72;5039365;28;20041;-69
2022/06/03 05:11:01;;;;;;;8.25;4.72;;;;;;;11.14;80.26;101568.03;5064913;28;20042;-70
2022/06/03 05:13:42;;;;;;;8.70;4.05;;;;;;;11.27;79.90;101564.16;5048501;28;20058;-69
2022/06/03 05:16:32;;;;;;;8.95;4.80;;;;;;;11.43;79.67;101560.97;5049293;28;20438;-69
2022/06/03 05:18:58;;;;;;;5.88;4.40;;;;;;;11.55;78.99;101556.41;5051047;28;20040;-70
2022/06/03 05:21:40;;;;;;;5.63;4.30;;;;;;;11.74;77.47;101552.88;5048808;28;20036;-69
2022/06/03 05:24:31;;;;;;;6.07;4.20;;;;;;;11.92;77.05;101558.13;5047011;28;20030;-69
2022/06/03 05:27:22;;;;;;;9.18;4.57;;;;;;;12.18;75.96;101560.81;5049246;28;20040;-69
2022/06/03 05:30:03;;;;;;;5.68;3.67;;;;;;;12.44;74.45;101557.50;5027758;28;20037;-69
2022/06/03 05:33:35;;;;;;;6.18;4.00;;;;;;;12.78;73.37;101552.38;5055766;28;20422;-69
2022/06/03 05:36:18;;;;;;;7.93;4.35;;;;;;;12.99;72.44;101546.81;4998555;28;20138;-69
2022/06/03 05:39:21;;;;;;;6.80;3.85;;;;;;;13.24;71.61;101539.97;4980530;28;20807;-69
2022/06/03 05:42:23;;;;;;;6.50;4.22;;;;;;;13.52;71.22;101545.00;5042212;28;20028;-70
2022/06/03 05:45:50;;;;;;;8.27;3.70;;;;;;;13.94;70.50;101543.34;5063496;28;20024;-69
2022/06/03 05:48:42;;;;;;;4.63;3.45;;;;;;;14.32;66.56;101541.91;4947084;28;20138;-69
2022/06/03 05:51:32;;;;;;;4.72;3.05;;;;;;;14.58;66.76;101536.56;4964054;28;20296;-69
2022/06/03 05:54:12;;;;;;;5.38;3.08;;;;;;;14.77;65.96;101537.22;5063427;28;20060;-69
2022/06/03 05:56:49;;;;;;;4.25;2.60;;;;;;;15.08;64.44;101544.31;5066409;28;20142;-69
2022/06/03 05:59:39;;;;;;;5.32;2.83;;;;;;;15.39;62.62;101541.78;5063658;28;20046;-70
2022/06/03 06:02:10;;;;;;;6.95;3.30;;;;;;;15.71;61.36;101529.53;5067061;28;20038;-70
2022/06/03 06:05:07;;;;;;;6.20;3.08;;;;;;;15.99;60.96;101522.00;5048862;28;20039;-69
2022/06/03 06:07:51;;;;;;;4.70;2.70;;;;;;;16.30;59.25;101523.75;5075565;23;20907;-74
2022/06/03 06:10:41;;;;;;;6.25;2.88;;;;;;;16.50;57.05;101524.91;5041770;28;20099;-74
2022/06/03 06:13:41;;;;;;;4.22;2.47;;;;;;;16.85;56.66;101517.38;5008250;28;20095;-74
2022/06/03 06:16:21;;;;;;;2.92;2.00;;;;;;;17.12;56.42;101517.72;5024044;28;20450;-75
2022/06/03 06:19:04;;;;;;;7.88;2.25;;;;;;;17.36;55.56;101516.63;5021858;28;20036;-74
2022/06/03 06:22:16;;;;;;;3.60;2.90;;;;;;;17.67;54.95;101526.06;5052246;23;20747;-83
2022/06/03 06:24:55;;;;;;;5.53;1.80;;;;;;;18.06;53.84;101515.19;4997936;28;20232;-83
2022/06/03 06:27:48;;;;;;;5.07;2.10;;;;;;;18.32;52.29;101518.22;5012400;28;20049;-83
2022/06/03 06:30:25;;;;;;;2.90;2.03;;;;;;;18.78;51.64;101509.84;5010344;28;20044;-83
2022/06/03 06:32:53;;;;;;;4.93;1.95;;;;;;;19.02;51.92;101516.47;5046493;28;20036;-83
2022/06/03 06:35:44;;;;;;;7.50;2.15;;;;;;;19.19;51.04;101520.41;5011667;28;20071;-83
2022/06/03 06:38:47;;;;;;;8.10;2.40;;;;;;;19.17;49.19;101517.16;5026504;28;20057;-83
2022/06/03 06:41:38;;;;;;;4.10;2.00;;;;;;;19.59;49.71;101517.94;5015164;28;20064;-83
2022/06/03 06:44:34;;;;;;;11.77;1.90;;;;;;;19.86;49.67;101514.56;5026501;28;20048;-83
2022/06/03 06:47:26;;;;;;;4.05;1.70;;;;;;;20.11;47.65;101514.78;5008449;28;20087;-83
2022/06/03 06:50:16;;;;;;;7.13;4.00;;;;;;;20.15;48.60;101516.00;5035120;28;20076;-84
2022/06/03 06:52:57;;;;;;;9.80;4.43;;;;;;;20.47;48.10;101516.19;5040186;28;20029;-83
2022/06/03 06:56:03;;;;;;;3.00;2.25;;;;;;;20.61;48.25;101517.84;5027489;28;20780;-83
2022/06/03 06:58:50;;;;;;;2.60;2.05;;;;;;;21.04;48.20;101525.25;5029478;28;20108;-83
2022/06/03 07:01:35;;;;;;;3.28;2.22;;;;;;;21.36;46.98;101527.94;5006743;28;20593;-84
2022/06/03 07:04:08;;;;;;;3.97;2.28;;;;;;;21.29;47.05;101522.69;5016418;28;20037;-83
2022/06/03 07:06:42;;;;;;;5.55;2.42;;;;;;;21.63;45.22;101525.22;5014707;28;20086;-83
2022/06/03 07:09:31;;;;;;;3.70;2.20;;;;;;;22.00;44.93;101525.34;5032916;28;20032;-83
2022/06/03 07:12:08;;;;;;;6.60;2.13;;;;;;;22.12;44.79;101523.66;5029836;28;20036;-83
2022/06/03 07:14:46;;;;;;;4.47;1.90;;;;;;;21.93;43.86;101515.66;5030444;28;20045;-84
2022/06/03 07:20:50;;;;;;;4.88;2.13;;;;;;;22.35;42.59;101508.03;5047094;28;20025;-83
2022/06/03 07:23:38;;;;;;;2.45;2.03;;;;;;;22.70;42.56;101510.13;5006937;28;20057;-83
2022/06/03 07:26:12;;;;;;;5.45;1.65;;;;;;;23.19;42.12;101510.22;5014992;28;20033;-83
2022/06/03 07:29:05;;;;;;;4.22;2.20;;;;;;;23.43;40.68;101511.13;5030211;28;20216;-83
2022/06/03 07:31:42;;;;;;;7.07;2.17;;;;;;;23.62;40.40;101498.66;5022984;28;20477;-84
2022/06/03 07:34:22;;;;;;;8.27;1.75;;;;;;;23.94;40.51;101500.22;5017624;28;20147;-83
2022/06/03 07:37:06;;;;;;;5.13;1.80;;;;;;;24.33;40.26;101490.81;5017578;28;20037;-83
2022/06/03 07:39:43;;;;;;;2.42;1.52;;;;;;;23.79;39.21;101495.38;5028804;28;20079;-83
2022/06/03 07:42:34;;;;;;;2.35;1.60;;;;;;;23.87;39.34;101489.75;5016864;28;20037;-82
2022/06/03 07:45:32;;;;;;;3.90;1.80;;;;;;;24.14;39.90;101498.06;5022414;28;20104;-84
2022/06/03 07:47:59;;;;;;;2.90;1.73;;;;;;;24.29;38.63;101498.41;5029202;28;20045;-84
2022/06/03 07:50:27;;;;;;;2.38;1.55;;;;;;;24.57;38.03;101501.44;5028721;28;20041;-83
2022/06/03 07:53:00;;;;;;;4.82;1.65;;;;;;;24.80;38.45;101496.06;5026144;28;20036;-82
2022/06/03 07:55:28;;;;;;;7.78;2.15;;;;;;;25.01;37.62;101475.25;5031785;28;20033;-83
2022/06/03 07:58:01;;;;;;;3.95;1.90;;;;;;;25.25;36.85;101468.84;5003663;28;20060;-84
2022/06/03 08:00:27;;;;;;;3.17;1.70;;;;;;;25.50;36.26;101462.38;5029319;28;20060;-83
2022/06/03 08:03:03;;;;;;;3.97;1.50;;;;;;;25.74;36.74;101463.03;5013695;28;20718;-83
2022/06/03 08:05:29;;;;;;;3.05;2.13;;;;;;;24.76;37.87;101465.75;5027008;28;20053;-83
2022/06/03 08:10:57;;;;;;;4.28;1.23;;;;;;;25.29;37.92;101468.38;5027533;28;20033;-83
2022/06/03 08:13:31;;;;;;;4.45;1.95;;;;;;;24.83;38.45;101470.94;5034333;28;20037;-83
2022/06/03 08:16:07;;;;;;;2.88;2.00;;;;;;;24.49;38.57;101468.09;5022285;28;20047;-83
2022/06/03 08:18:40;;;;;;;6.30;2.00;;;;;;;24.21;38.74;101461.66;5017650;28;20084;-83
2022/06/03 08:21:14;;;;;;;;;;;;;;;24.22;38.39;101458.00;5016849;28;20059;-83
2022/06/03 08:23:40;;;;;;;5.95;1.67;;;;;;;24.70;38.05;101457.97;5031427;28;19912;-84
2022/06/03 08:26:14;;;;;;;4.38;2.17;;;;;;;24.43;37.01;101456.59;5017573;28;20374;-81
2022/06/03 08:28:45;;;;;;;5.65;1.83;;;;;;;24.37;38.20;101460.16;5026350;28;20674;-82
2022/06/03 08:31:11;;;;;;;4.18;2.22;;;;;;;24.41;38.87;101449.88;5003896;28;20033;-83
2022/06/03 08:33:45;;;;;;;3.70;1.88;;;;;;;24.63;38.25;101448.28;5017669;28;20107;-83
2022/06/03 08:36:15;;;;;;;2.45;1.65;;;;;;;25.16;38.43;101450.88;5027474;28;20524;-83
2022/06/03 08:39:19;;;;;;;5.90;2.00;;;;;;;25.44;36.99;101447.41;5015573;28;20048;-84
2022/06/03 08:42:15;;;;;;;7.80;2.47;;;;;;;25.27;36.59;101450.03;5030830;28;20021;-82
2022/06/03 08:45:20;;;;;;;6.93;1.90;;;;;;;24.79;36.64;101445.91;5016572;28;20389;-84
2022/06/03 08:47:58;;;;;;;6.28;1.63;;;;;;;25.34;35.70;101450.69;5011055;28;20119;-82
2022/06/03 08:50:42;;;;;;;4.32;1.67;;;;;;;25.13;35.30;101441.53;5028432;28;20029;-82
2022/06/03 08:53:24;;;;;;;6.57;2.25;;;;;;;25.31;35.49;101451.16;5007711;28;20048;-83
2022/06/03 08:56:01;;;;;;;4.60;1.95;;;;;;;25.11;35.34;101440.97;5038787;28;20029;-83
2022/06/03 08:58:40;;;;;;;4.40;1.33;;;;;;;25.27;35.56;101446.59;5017705;28;20091;-83
2022/06/03 09:01:43;;;;;;;6.97;1.60;;;;;;;24.87;35.32;101445.56;5026963;28;20033;-82
2022/06/03 09:04:24;;;;;;;4.97;1.75;;;;;;;24.39;35.86;101438.72;5028262;28;20139;-82
2022/06/03 09:06:55;;;;;;;7.55;2.35;;;;;;;24.23;35.97;101441.06;5025022;28;20544;-82
2022/06/03 09:09:47;;;;;;;6.72;2.10;;;;;;;24.19;36.12;101433.81;5024949;28;20033;-82
2022/06/03 09:12:13;;;;;;;4.85;2.20;;;;;;;24.66;35.50;101428.47;5018464;28;20445;-81
2022/06/03 09:14:42;;;;;;;8.77;2.60;;;;;;;25.28;36.42;101421.63;5016264;28;20107;-82
2022/06/03 09:17:42;;;;;;;12.02;2.95;;;;;;;25.84;34.84;101420.72;5024373;28;20088;-82
2022/06/03 09:20:16;;;;;;;8.40;3.05;;;;;;;25.95;33.75;101434.16;5011304;28;20061;-82
2022/06/03 09:22:41;;;;;;;16.35;3.50;;;;;;;25.89;34.66;101430.59;5021186;28;20037;-83
2022/06/03 09:25:12;;;;;;;19.58;4.53;;;;;;;25.78;35.75;101434.94;5042853;28;20085;-83
2022/06/03 09:27:41;;;;;;;17.65;4.38;;;;;;;25.63;34.88;101435.50;5010620;28;20025;-82
2022/06/03 09:30:08;;;;;;;18.50;4.85;;;;;;;25.24;35.39;101429.28;5022367;28;20087;-83
2022/06/03 09:32:41;;;;;;;19.27;6.22;;;;;;;24.89;35.15;101429.41;5030205;28;20061;-82
2022/06/03 09:35:09;;;;;;;;;;;;;;;24.95;35.34;101423.16;5015043;28;20036;-81
2022/06/03 09:37:41;;;;;;;15.38;5.57;;;;;;;25.48;34.95;101423.84;5023548;28;19916;-82
2022/06/03 09:40:13;;;;;;;14.52;4.38;;;;;;;25.66;33.74;101425.47;5027348;28;20029;-83
2022/06/03 09:42:47;;;;;;;13.55;4.75;;;;;;;25.87;33.66;101422.06;5023821;28;20604;-83
2022/06/03 09:45:16;;;;;;;19.15;5.53;;;;;;;25.79;33.99;101427.78;5026952;28;20039;-82
2022/06/03 09:47:42;;;;;;;23.88;5.75;;;;;;;25.98;33.33;101412.44;5023500;28;20041;-83
2022/06/03 09:50:08;;;;;;;13.98;4.50;;;;;;;25.92;33.16;101413.38;5013232;28;20083;-84
2022/06/03 09:52:34;;;;;;;10.32;3.42;;;;;;;25.69;33.57;101412.50;5012300;28;20029;-82
2022/06/03 09:55:06;;;;;;;9.57;2.50;;;;;;;25.81;32.69;101409.75;5027022;28;20029;-83
2022/06/03 09:57:40;;;;;;;5.97;2.13;;;;;;;25.71;32.09;101409.59;5027056;28;20036;-82
2022/06/03 10:00:21;;;;;;;8.75;4.30;;;;;;;25.61;32.77;101413.69;5008977;28;20033;-82
2022/06/03 10:02:47;;;;;;;7.00;1.98;;;;;;;25.42;32.97;101413.13;5011557;28;20064;-83
2022/06/03 10:05:16;;;;;;;4.03;2.20;;;;;;;25.18;32.54;101415.06;5009398;28;20643;-84
2022/06/03 10:07:43;;;;;;;4.30;2.00;;;;;;;25.00;33.96;101407.34;5028978;28;20032;-82
2022/06/03 10:13:00;;;;;;;5.90;2.45;;;;;;;24.95;34.06;101404.59;5043755;28;20067;-82
2022/06/03 10:15:38;;;;;;;7.40;1.98;;;;;;;25.19;33.73;101397.34;5027503;28;20037;-82
2022/06/03 10:18:11;;;;;;;4.15;1.60;;;;;;;24.64;33.91;101394.22;5015026;28;20028;-83
2022/06/03 10:20:36;;;;;;;;;;;;;;;25.07;35.45;101386.75;5027772;28;20068;-83
2022/06/03 10:23:08;;;;;;;3.50;1.73;;;;;;;25.38;35.83;101393.44;5007327;28;19964;-82
2022/06/03 10:25:39;;;;;;;8.20;1.77;;;;;;;25.76;35.09;101388.44;5029401;28;20030;-82
2022/06/03 10:28:08;;;;;;;11.95;2.42;;;;;;;25.44;34.64;101389.00;5025166;28;20037;-83
2022/06/03 10:30:37;;;;;;;5.18;2.08;;;;;;;25.21;35.78;101381.97;5007338;28;20265;-83
2022/06/03 10:33:05;;;;;;;6.47;1.50;;;;;;;24.75;35.63;101379.31;5040876;28;20029;-83
2022/06/03 10:35:37;;;;;;;3.70;1.48;;;;;;;25.32;34.31;101383.00;5025506;28;20092;-82
2022/06/03 10:38:03;;;;;;;4.00;0.98;;;;;;;25.73;34.80;101383.59;5010940;28;20052;-83
2022/06/03 10:40:30;;;;;;;8.15;1.35;;;;;;;25.73;34.22;101389.75;5023312;28;20037;-82
2022/06/03 10:43:00;;;;;;;2.50;1.60;;;;;;;26.05;33.26;101380.34;5027628;28;20025;-81
2022/06/03 10:45:31;;;;;;;3.03;1.17;;;;;;;25.86;33.30;101371.84;5021589;28;20030;-82
2022/06/03 10:47:57;;;;;;;1.83;1.20;;;;;;;25.86;33.95;101369.19;5027112;28;20536;-81
2022/06/03 10:50:33;;;;;;;2.00;1.05;;;;;;;25.92;34.32;101366.41;5014023;28;20164;-82
2022/06/03 11:01:47;;;;;;;1.87;1.20;;;;;;;26.31;32.62;101362.88;5011047;28;20060;-82
2022/06/03 11:04:41;;;;;;;1.00;0.90;;;;;;;25.92;32.83;101366.41;5010486;28;20044;-82
2022/06/03 11:07:30;;;;;;;2.75;1.40;;;;;;;25.70;33.16;101360.22;5023950;28;20044;-82
2022/06/03 11:09:58;;;;;;;2.97;0.88;;;;;;;25.79;34.69;101364.84;5007652;28;20041;-82
2022/06/03 11:12:27;;;;;;;1.67;1.10;;;;;;;25.92;33.52;101360.25;5005258;28;20040;-82
2022/06/03 11:14:52;;;;;;;2.17;1.20;;;;;;;26.13;34.33;101359.50;5025696;28;20374;-82
2022/06/03 11:17:23;;;;;;;1.58;1.17;;;;;;;26.41;33.45;101352.38;5009959;28;20037;-83
2022/06/03 11:19:52;;;;;;;3.72;1.40;;;;;;;26.38;32.20;101361.63;5023767;28;20025;-82
2022/06/03 11:22:29;;;;;;;3.20;1.13;;;;;;;26.49;32.01;101354.59;5023779;28;20039;-83
2022/06/03 11:25:16;;;;;;;4.65;1.20;;;;;;;26.07;31.97;101351.69;5028367;28;20548;-83
2022/06/03 11:27:42;;;;;;;2.25;1.20;;;;;;;26.14;33.98;101347.78;5000835;28;20509;-82
2022/06/03 11:30:16;;;;;;;1.55;1.10;;;;;;;26.32;36.21;101346.69;5023331;28;20097;-82
2022/06/03 11:32:45;;;;;;;2.22;1.13;;;;;;;26.76;33.70;101349.31;5007366;28;20481;-82
2022/06/03 11:35:40;;;;;;;2.95;1.02;;;;;;;26.83;31.08;101348.31;5022239;28;20037;-83
2022/06/03 11:38:09;;;;;;;2.33;0.95;;;;;;;27.00;31.49;101344.47;5006182;28;20051;-82
2022/06/03 11:40:38;;;;;;;1.55;1.08;;;;;;;26.95;32.92;101338.31;5032242;28;20352;-82
2022/06/03 11:43:13;;;;;;;5.00;1.25;;;;;;;27.30;31.46;101327.19;5030404;28;20047;-83
2022/06/03 11:46:07;;;;;;;2.13;1.20;;;;;;;27.23;32.96;101331.09;5032755;28;20075;-84
2022/06/03 11:48:39;;;;;;;1.48;0.82;;;;;;;26.44;32.62;101325.28;5014695;28;20044;-80
2022/06/03 11:51:07;;;;;;;3.00;1.13;;;;;;;26.84;32.25;101324.09;5031680;28;20040;-82
2022/06/03 11:53:38;;;;;;;2.50;0.98;;;;;;;27.00;33.26;101320.53;5014786;28;20040;-83
2022/06/03 11:56:07;;;;;;;1.42;0.98;;;;;;;26.95;33.07;101315.16;5018938;28;20456;-82
2022/06/03 11:58:54;;;;;;;7.05;1.75;;;;;;;26.82;32.46;101314.78;5010932;28;20486;-82
2022/06/03 12:01:34;;;;;;;3.17;1.30;;;;;;;26.73;32.71;101309.94;5016833;28;20045;-81
2022/06/03 12:04:26;;;;;;;2.65;1.20;;;;;;;26.93;32.10;101303.19;5017136;28;20066;-84
2022/06/03 12:07:08;;;;;;;8.98;1.17;;;;;;;27.10;33.19;101308.38;4983589;28;20486;-82
2022/06/03 12:10:01;;;;;;;2.33;1.00;;;;;;;27.20;33.49;101313.78;5033614;28;20051;-81
2022/06/03 12:15:30;;;;;;;3.47;1.58;;;;;;;26.92;34.90;101306.91;5037732;28;19952;-84
2022/06/03 12:17:57;;;;;;;4.43;1.30;;;;;;;27.25;32.31;101297.03;5031469;28;20029;-82
2022/06/03 12:20:31;;;;;;;1.45;1.13;;;;;;;27.14;33.08;101306.78;5018127;28;20027;-81
2022/06/03 12:23:17;;;;;;;5.57;0.95;;;;;;;27.06;33.56;101300.09;5011678;28;20041;-82
2022/06/03 12:25:45;;;;;;;2.90;1.20;;;;;;;27.42;31.85;101296.91;5016666;28;20501;-82
2022/06/03 12:28:29;;;;;;;1.52;1.38;;;;;;;27.41;31.45;101289.97;5016089;28;20040;-82
2022/06/03 12:31:10;;;;;;;3.75;1.33;;;;;;;27.21;31.99;101288.75;5034348;28;20413;-82
2022/06/03 12:33:54;;;;;;;2.47;1.05;;;;;;;27.31;32.37;101286.22;5029789;28;20605;-81
2022/06/03 12:36:40;;;;;;;3.25;1.45;;;;;;;27.47;33.03;101284.44;5028046;28;20120;-82
2022/06/03 12:39:23;;;;;;;4.82;1.08;;;;;;;27.49;31.86;101284.97;5016849;28;20037;-82
2022/06/03 12:41:49;;;;;;;1.83;0.90;;;;;;;27.57;31.51;101284.47;5030393;28;20063;-83
2022/06/03 12:44:33;;;;;;;1.60;1.02;;;;;;;27.75;32.29;101275.25;5031271;28;20041;-81
2022/06/03 12:47:17;;;;;;;2.95;1.48;;;;;;;27.67;30.75;101283.75;5031852;28;20025;-81
2022/06/03 12:49:42;;;;;;;1.35;1.13;;;;;;;27.81;32.16;101275.28;5034893;28;20496;-82
2022/06/03 12:52:12;;;;;;;1.20;0.95;;;;;;;28.31;32.52;101284.50;5031474;28;20037;-82
2022/06/03 12:54:51;;;;;;;4.57;1.63;;;;;;;28.43;32.35;101281.63;5033832;28;20041;-83
2022/06/03 12:57:27;;;;;;;4.00;1.30;;;;;;;28.54;31.76;101280.59;5010625;28;20099;-82
2022/06/03 13:00:01;;;;;;;6.32;1.60;;;;;;;28.57;30.34;101288.06;5029834;28;20025;-82